Norwood, Georgia
Current Conditions -  °F | °C
As of 2:35 PM on Monday 22 Dec 2014 (Local Time) from KHQU Reporting Station
Overcast Overcast  
Wind Chill: 44°   Ceiling: 700
Heat Index: 47°   Visibility: 7mi
Dew Point: 47°   Wind: 7mph
Humidity: 100%   Direction: 50°NE
Pressure: 30.02"   Gusts: NA
Location:  33.46°N, 82.71°W
Report Text: KHQU 221935Z AUTO 05006KT 7SM OVC007 09/09 A3002 RMK AO1 T00850085
Loading
Personal Weather Stations






























Interactive Weather Map New forecast layout! Learn more

10-Day Weather Forecast

Advertisements
Track Severe Weather on mobile